Himrod, New York
Current Conditions -  °F | °C
As of 10:53 AM on Saturday 25 Oct 2014 (Local Time) from KPEO Reporting Station
Few Clouds Few Clouds  
Wind Chill: 57°   Ceiling: Unl
Heat Index: 57°   Visibility: 10mi
Dew Point: 44°   Wind: 14mph
Humidity: 62%   Direction: 210°SSW
Pressure: 29.79"   Gusts: NA
Location:  42.59°N, 76.96°W
Report Text: KPEO 251453Z AUTO 21012KT 10SM FEW037 14/07 A2979 RMK AO2 SLP086 T01390067 58020
Loading
Personal Weather Stations






























Interactive Weather Map New forecast layout! Learn more

10-Day Weather Forecast

Advertisements
Track Severe Weather on mobile